sensor_id;sensor_type;location;lat;lon;timestamp;P1;durP1;ratioP1;P2;durP2;ratioP2
71600;SDS011;59446;52.192;4.628;2023-01-25T00:02:05;3.47;;;1.60;;
71600;SDS011;59446;52.192;4.628;2023-01-25T00:04:31;3.53;;;1.60;;
71600;SDS011;59446;52.192;4.628;2023-01-25T00:06:56;3.72;;;1.75;;
71600;SDS011;59446;52.192;4.628;2023-01-25T00:09:22;2.83;;;1.60;;
71600;SDS011;59446;52.192;4.628;2023-01-25T00:11:48;2.42;;;1.30;;
71600;SDS011;59446;52.192;4.628;2023-01-25T00:14:15;3.10;;;1.67;;
71600;SDS011;59446;52.192;4.628;2023-01-25T00:16:41;4.03;;;1.77;;
71600;SDS011;59446;52.192;4.628;2023-01-25T00:19:07;3.55;;;1.58;;
71600;SDS011;59446;52.192;4.628;2023-01-25T00:21:34;3.97;;;1.60;;
71600;SDS011;59446;52.192;4.628;2023-01-25T00:24:00;3.03;;;1.33;;
71600;SDS011;59446;52.192;4.628;2023-01-25T00:26:28;3.28;;;1.50;;
71600;SDS011;59446;52.192;4.628;2023-01-25T00:28:54;2.93;;;1.47;;
71600;SDS011;59446;52.192;4.628;2023-01-25T00:39:34;2.65;;;1.30;;
71600;SDS011;59446;52.192;4.628;2023-01-25T00:42:00;3.03;;;1.40;;
71600;SDS011;59446;52.192;4.628;2023-01-25T00:44:25;2.13;;;1.20;;
71600;SDS011;59446;52.192;4.628;2023-01-25T00:46:51;4.30;;;1.70;;
71600;SDS011;59446;52.192;4.628;2023-01-25T00:49:24;3.40;;;1.50;;
71600;SDS011;59446;52.192;4.628;2023-01-25T00:51:51;2.75;;;1.40;;
71600;SDS011;59446;52.192;4.628;2023-01-25T00:54:17;3.37;;;1.33;;
71600;SDS011;59446;52.192;4.628;2023-01-25T00:56:43;3.78;;;1.45;;
71600;SDS011;59446;52.192;4.628;2023-01-25T00:59:09;4.45;;;1.30;;
71600;SDS011;59446;52.192;4.628;2023-01-25T01:01:35;3.67;;;1.65;;
71600;SDS011;59446;52.192;4.628;2023-01-25T01:04:01;3.87;;;1.90;;
71600;SDS011;59446;52.192;4.628;2023-01-25T01:06:27;4.87;;;1.73;;
71600;SDS011;59446;52.192;4.628;2023-01-25T01:08:52;3.15;;;1.40;;
71600;SDS011;59446;52.192;4.628;2023-01-25T01:11:17;3.30;;;1.30;;
71600;SDS011;59446;52.192;4.628;2023-01-25T01:13:43;2.60;;;1.50;;
71600;SDS011;59446;52.192;4.628;2023-01-25T01:16:09;2.67;;;1.40;;
71600;SDS011;59446;52.192;4.628;2023-01-25T01:18:43;3.22;;;1.60;;
71600;SDS011;59446;52.192;4.628;2023-01-25T01:21:10;3.60;;;1.45;;
71600;SDS011;59446;52.192;4.628;2023-01-25T01:23:36;2.30;;;1.50;;
71600;SDS011;59446;52.192;4.628;2023-01-25T01:26:02;2.40;;;1.58;;
71600;SDS011;59446;52.192;4.628;2023-01-25T01:28:30;3.50;;;1.53;;
71600;SDS011;59446;52.192;4.628;2023-01-25T01:31:00;1.98;;;1.00;;
71600;SDS011;59446;52.192;4.628;2023-01-25T01:33:25;2.72;;;1.33;;
71600;SDS011;59446;52.192;4.628;2023-01-25T01:35:51;2.60;;;1.13;;
71600;SDS011;59446;52.192;4.628;2023-01-25T01:38:16;1.90;;;1.10;;
71600;SDS011;59446;52.192;4.628;2023-01-25T01:40:45;3.17;;;1.30;;
71600;SDS011;59446;52.192;4.628;2023-01-25T01:43:29;2.50;;;1.13;;
71600;SDS011;59446;52.192;4.628;2023-01-25T01:45:56;3.63;;;1.52;;
71600;SDS011;59446;52.192;4.628;2023-01-25T01:48:37;2.70;;;1.10;;
71600;SDS011;59446;52.192;4.628;2023-01-25T01:53:53;2.95;;;1.20;;
71600;SDS011;59446;52.192;4.628;2023-01-25T01:56:31;3.17;;;1.40;;
71600;SDS011;59446;52.192;4.628;2023-01-25T01:59:02;3.42;;;1.35;;
71600;SDS011;59446;52.192;4.628;2023-01-25T02:01:30;2.37;;;1.30;;
71600;SDS011;59446;52.192;4.628;2023-01-25T02:03:56;2.83;;;1.33;;
71600;SDS011;59446;52.192;4.628;2023-01-25T02:08:56;2.95;;;1.20;;
71600;SDS011;59446;52.192;4.628;2023-01-25T02:11:22;2.20;;;1.20;;
71600;SDS011;59446;52.192;4.628;2023-01-25T02:13:50;3.17;;;1.37;;
71600;SDS011;59446;52.192;4.628;2023-01-25T02:16:18;2.33;;;1.30;;
71600;SDS011;59446;52.192;4.628;2023-01-25T02:18:49;2.67;;;1.40;;
71600;SDS011;59446;52.192;4.628;2023-01-25T02:21:15;4.33;;;1.60;;
71600;SDS011;59446;52.192;4.628;2023-01-25T02:23:46;2.83;;;1.13;;
71600;SDS011;59446;52.192;4.628;2023-01-25T02:26:17;1.87;;;1.10;;
71600;SDS011;59446;52.192;4.628;2023-01-25T02:28:53;2.85;;;1.00;;
71600;SDS011;59446;52.192;4.628;2023-01-25T02:31:22;3.05;;;1.48;;
71600;SDS011;59446;52.192;4.628;2023-01-25T02:33:48;2.90;;;1.20;;
71600;SDS011;59446;52.192;4.628;2023-01-25T02:36:18;2.43;;;1.50;;
71600;SDS011;59446;52.192;4.628;2023-01-25T02:41:43;3.50;;;1.40;;
71600;SDS011;59446;52.192;4.628;2023-01-25T02:44:13;2.72;;;1.35;;
71600;SDS011;59446;52.192;4.628;2023-01-25T02:46:41;2.57;;;1.10;;
71600;SDS011;59446;52.192;4.628;2023-01-25T02:49:09;3.03;;;1.33;;
71600;SDS011;59446;52.192;4.628;2023-01-25T02:51:36;2.78;;;1.33;;
71600;SDS011;59446;52.192;4.628;2023-01-25T02:54:05;1.93;;;1.03;;
71600;SDS011;59446;52.192;4.628;2023-01-25T02:56:31;2.28;;;1.13;;
71600;SDS011;59446;52.192;4.628;2023-01-25T02:58:57;2.57;;;1.23;;
71600;SDS011;59446;52.192;4.628;2023-01-25T03:01:23;2.33;;;1.02;;
71600;SDS011;59446;52.192;4.628;2023-01-25T03:03:49;2.22;;;1.38;;
71600;SDS011;59446;52.192;4.628;2023-01-25T03:06:14;3.07;;;1.47;;
71600;SDS011;59446;52.192;4.628;2023-01-25T03:08:40;2.30;;;1.10;;
71600;SDS011;59446;52.192;4.628;2023-01-25T03:11:06;2.30;;;1.20;;
71600;SDS011;59446;52.192;4.628;2023-01-25T03:13:33;2.53;;;1.48;;
71600;SDS011;59446;52.192;4.628;2023-01-25T03:16:03;2.47;;;1.20;;
71600;SDS011;59446;52.192;4.628;2023-01-25T03:18:31;2.03;;;1.02;;
71600;SDS011;59446;52.192;4.628;2023-01-25T03:21:03;2.10;;;1.20;;
71600;SDS011;59446;52.192;4.628;2023-01-25T03:23:33;2.83;;;1.20;;
71600;SDS011;59446;52.192;4.628;2023-01-25T03:26:12;1.90;;;1.13;;
71600;SDS011;59446;52.192;4.628;2023-01-25T03:28:40;1.42;;;1.00;;
71600;SDS011;59446;52.192;4.628;2023-01-25T03:31:06;1.83;;;1.10;;
71600;SDS011;59446;52.192;4.628;2023-01-25T03:33:33;2.75;;;1.10;;
71600;SDS011;59446;52.192;4.628;2023-01-25T03:35:59;2.23;;;1.40;;
71600;SDS011;59446;52.192;4.628;2023-01-25T03:38:25;2.40;;;0.98;;
71600;SDS011;59446;52.192;4.628;2023-01-25T03:40:50;2.83;;;1.60;;
71600;SDS011;59446;52.192;4.628;2023-01-25T03:43:16;2.03;;;1.03;;
71600;SDS011;59446;52.192;4.628;2023-01-25T03:45:41;2.67;;;1.27;;
71600;SDS011;59446;52.192;4.628;2023-01-25T03:48:07;2.40;;;1.13;;
71600;SDS011;59446;52.192;4.628;2023-01-25T03:50:32;1.53;;;1.00;;
71600;SDS011;59446;52.192;4.628;2023-01-25T03:52:58;3.03;;;1.07;;
71600;SDS011;59446;52.192;4.628;2023-01-25T03:55:30;1.30;;;0.85;;
71600;SDS011;59446;52.192;4.628;2023-01-25T03:57:55;2.13;;;1.10;;
71600;SDS011;59446;52.192;4.628;2023-01-25T04:00:21;2.17;;;1.00;;
71600;SDS011;59446;52.192;4.628;2023-01-25T04:02:46;2.63;;;1.10;;
71600;SDS011;59446;52.192;4.628;2023-01-25T04:05:12;1.53;;;0.73;;
71600;SDS011;59446;52.192;4.628;2023-01-25T04:07:37;2.03;;;1.00;;
71600;SDS011;59446;52.192;4.628;2023-01-25T04:10:03;2.23;;;1.00;;
71600;SDS011;59446;52.192;4.628;2023-01-25T04:12:29;2.25;;;1.02;;
71600;SDS011;59446;52.192;4.628;2023-01-25T04:14:54;2.83;;;1.20;;
71600;SDS011;59446;52.192;4.628;2023-01-25T04:17:20;2.80;;;1.33;;
71600;SDS011;59446;52.192;4.628;2023-01-25T04:19:45;2.40;;;1.00;;
71600;SDS011;59446;52.192;4.628;2023-01-25T04:22:10;1.73;;;0.90;;
71600;SDS011;59446;52.192;4.628;2023-01-25T04:24:37;2.15;;;1.00;;
71600;SDS011;59446;52.192;4.628;2023-01-25T04:27:02;3.13;;;1.30;;
71600;SDS011;59446;52.192;4.628;2023-01-25T04:29:27;2.93;;;1.30;;
71600;SDS011;59446;52.192;4.628;2023-01-25T04:31:53;2.20;;;1.10;;
71600;SDS011;59446;52.192;4.628;2023-01-25T04:34:18;1.83;;;0.97;;
71600;SDS011;59446;52.192;4.628;2023-01-25T04:36:44;2.43;;;1.20;;
71600;SDS011;59446;52.192;4.628;2023-01-25T04:39:09;3.00;;;1.33;;
71600;SDS011;59446;52.192;4.628;2023-01-25T04:41:34;1.53;;;1.00;;
71600;SDS011;59446;52.192;4.628;2023-01-25T04:44:00;2.33;;;1.23;;
71600;SDS011;59446;52.192;4.628;2023-01-25T04:46:25;1.87;;;0.90;;
71600;SDS011;59446;52.192;4.628;2023-01-25T04:48:50;3.25;;;1.13;;
71600;SDS011;59446;52.192;4.628;2023-01-25T04:51:16;1.80;;;1.10;;
71600;SDS011;59446;52.192;4.628;2023-01-25T04:53:41;2.37;;;1.10;;
71600;SDS011;59446;52.192;4.628;2023-01-25T04:56:06;2.20;;;0.97;;
71600;SDS011;59446;52.192;4.628;2023-01-25T04:58:32;1.83;;;0.93;;
71600;SDS011;59446;52.192;4.628;2023-01-25T05:01:00;2.43;;;1.13;;
71600;SDS011;59446;52.192;4.628;2023-01-25T05:03:27;2.83;;;1.33;;
71600;SDS011;59446;52.192;4.628;2023-01-25T05:05:52;1.97;;;1.10;;
71600;SDS011;59446;52.192;4.628;2023-01-25T05:08:17;2.03;;;0.90;;
71600;SDS011;59446;52.192;4.628;2023-01-25T05:10:43;2.07;;;1.00;;
71600;SDS011;59446;52.192;4.628;2023-01-25T05:13:09;1.92;;;1.10;;
71600;SDS011;59446;52.192;4.628;2023-01-25T05:15:34;2.43;;;1.30;;
71600;SDS011;59446;52.192;4.628;2023-01-25T05:17:59;1.63;;;1.00;;
71600;SDS011;59446;52.192;4.628;2023-01-25T05:20:25;2.27;;;1.00;;
71600;SDS011;59446;52.192;4.628;2023-01-25T05:22:50;1.70;;;1.10;;
71600;SDS011;59446;52.192;4.628;2023-01-25T05:25:15;1.77;;;1.00;;
71600;SDS011;59446;52.192;4.628;2023-01-25T05:28:02;1.80;;;0.95;;
71600;SDS011;59446;52.192;4.628;2023-01-25T05:30:28;3.08;;;1.27;;
71600;SDS011;59446;52.192;4.628;2023-01-25T05:32:54;2.07;;;1.20;;
71600;SDS011;59446;52.192;4.628;2023-01-25T05:35:19;2.30;;;0.80;;
71600;SDS011;59446;52.192;4.628;2023-01-25T05:37:45;2.03;;;1.13;;
71600;SDS011;59446;52.192;4.628;2023-01-25T05:40:10;2.70;;;1.07;;
71600;SDS011;59446;52.192;4.628;2023-01-25T05:42:36;2.83;;;1.17;;
71600;SDS011;59446;52.192;4.628;2023-01-25T05:45:01;2.50;;;1.20;;
71600;SDS011;59446;52.192;4.628;2023-01-25T05:47:27;2.43;;;1.00;;
71600;SDS011;59446;52.192;4.628;2023-01-25T05:49:52;2.53;;;1.00;;
71600;SDS011;59446;52.192;4.628;2023-01-25T05:52:17;2.23;;;0.97;;
71600;SDS011;59446;52.192;4.628;2023-01-25T05:54:43;2.53;;;1.20;;
71600;SDS011;59446;52.192;4.628;2023-01-25T05:57:08;2.23;;;1.30;;
71600;SDS011;59446;52.192;4.628;2023-01-25T05:59:34;2.47;;;1.42;;
71600;SDS011;59446;52.192;4.628;2023-01-25T06:02:00;1.67;;;0.90;;
71600;SDS011;59446;52.192;4.628;2023-01-25T06:04:25;2.40;;;1.00;;
71600;SDS011;59446;52.192;4.628;2023-01-25T06:06:51;1.53;;;0.93;;
71600;SDS011;59446;52.192;4.628;2023-01-25T06:09:16;2.47;;;1.30;;
71600;SDS011;59446;52.192;4.628;2023-01-25T06:11:42;1.57;;;0.90;;
71600;SDS011;59446;52.192;4.628;2023-01-25T06:14:11;2.25;;;1.02;;
71600;SDS011;59446;52.192;4.628;2023-01-25T06:16:37;2.00;;;1.00;;
71600;SDS011;59446;52.192;4.628;2023-01-25T06:19:06;1.90;;;1.00;;
71600;SDS011;59446;52.192;4.628;2023-01-25T06:21:32;2.63;;;1.30;;
71600;SDS011;59446;52.192;4.628;2023-01-25T06:24:00;3.03;;;1.20;;
71600;SDS011;59446;52.192;4.628;2023-01-25T06:26:27;2.08;;;0.93;;
71600;SDS011;59446;52.192;4.628;2023-01-25T06:28:52;2.60;;;0.90;;
71600;SDS011;59446;52.192;4.628;2023-01-25T06:31:17;1.33;;;0.90;;
71600;SDS011;59446;52.192;4.628;2023-01-25T06:33:46;2.37;;;1.27;;
71600;SDS011;59446;52.192;4.628;2023-01-25T06:36:13;3.08;;;1.27;;
71600;SDS011;59446;52.192;4.628;2023-01-25T06:38:40;2.10;;;1.00;;
71600;SDS011;59446;52.192;4.628;2023-01-25T06:41:06;1.73;;;0.77;;
71600;SDS011;59446;52.192;4.628;2023-01-25T06:43:35;1.75;;;0.90;;
71600;SDS011;59446;52.192;4.628;2023-01-25T06:46:01;1.52;;;0.80;;
71600;SDS011;59446;52.192;4.628;2023-01-25T06:48:29;1.43;;;0.90;;
71600;SDS011;59446;52.192;4.628;2023-01-25T06:50:56;2.10;;;0.98;;
71600;SDS011;59446;52.192;4.628;2023-01-25T06:53:23;2.35;;;1.10;;
71600;SDS011;59446;52.192;4.628;2023-01-25T06:56:00;2.05;;;1.05;;
71600;SDS011;59446;52.192;4.628;2023-01-25T06:58:27;1.57;;;0.93;;
71600;SDS011;59446;52.192;4.628;2023-01-25T07:00:53;2.65;;;1.08;;
71600;SDS011;59446;52.192;4.628;2023-01-25T07:03:24;2.58;;;1.10;;
71600;SDS011;59446;52.192;4.628;2023-01-25T07:05:49;1.90;;;0.83;;
71600;SDS011;59446;52.192;4.628;2023-01-25T07:08:15;2.40;;;1.10;;
71600;SDS011;59446;52.192;4.628;2023-01-25T07:10:41;1.52;;;0.93;;
71600;SDS011;59446;52.192;4.628;2023-01-25T07:13:06;1.87;;;1.10;;
71600;SDS011;59446;52.192;4.628;2023-01-25T07:15:32;2.63;;;1.20;;
71600;SDS011;59446;52.192;4.628;2023-01-25T07:17:57;2.13;;;1.05;;
71600;SDS011;59446;52.192;4.628;2023-01-25T07:20:23;1.60;;;1.10;;
71600;SDS011;59446;52.192;4.628;2023-01-25T07:22:48;1.77;;;0.70;;
71600;SDS011;59446;52.192;4.628;2023-01-25T07:25:13;2.17;;;1.13;;
71600;SDS011;59446;52.192;4.628;2023-01-25T07:27:39;1.67;;;0.97;;
71600;SDS011;59446;52.192;4.628;2023-01-25T07:30:04;1.50;;;0.90;;
71600;SDS011;59446;52.192;4.628;2023-01-25T07:32:30;1.58;;;0.85;;
71600;SDS011;59446;52.192;4.628;2023-01-25T07:34:55;1.73;;;0.90;;
71600;SDS011;59446;52.192;4.628;2023-01-25T07:37:21;1.97;;;0.87;;
71600;SDS011;59446;52.192;4.628;2023-01-25T07:39:46;1.37;;;0.70;;
71600;SDS011;59446;52.192;4.628;2023-01-25T07:42:14;2.58;;;1.10;;
71600;SDS011;59446;52.192;4.628;2023-01-25T07:44:40;2.60;;;1.23;;
71600;SDS011;59446;52.192;4.628;2023-01-25T07:47:05;4.70;;;1.77;;
71600;SDS011;59446;52.192;4.628;2023-01-25T07:49:31;4.60;;;1.90;;
71600;SDS011;59446;52.192;4.628;2023-01-25T07:51:57;4.17;;;2.00;;
71600;SDS011;59446;52.192;4.628;2023-01-25T07:54:22;7.13;;;2.10;;
71600;SDS011;59446;52.192;4.628;2023-01-25T07:56:47;3.70;;;1.43;;
71600;SDS011;59446;52.192;4.628;2023-01-25T07:59:13;4.60;;;1.77;;
71600;SDS011;59446;52.192;4.628;2023-01-25T08:01:39;4.50;;;1.93;;
71600;SDS011;59446;52.192;4.628;2023-01-25T08:04:05;4.65;;;2.05;;
71600;SDS011;59446;52.192;4.628;2023-01-25T08:06:31;4.10;;;1.50;;
71600;SDS011;59446;52.192;4.628;2023-01-25T08:09:03;6.03;;;2.05;;
71600;SDS011;59446;52.192;4.628;2023-01-25T08:11:35;5.55;;;2.35;;
71600;SDS011;59446;52.192;4.628;2023-01-25T08:14:01;4.90;;;1.87;;
71600;SDS011;59446;52.192;4.628;2023-01-25T08:16:27;4.65;;;1.67;;
71600;SDS011;59446;52.192;4.628;2023-01-25T08:18:53;3.08;;;1.38;;
71600;SDS011;59446;52.192;4.628;2023-01-25T08:21:21;3.60;;;1.60;;
71600;SDS011;59446;52.192;4.628;2023-01-25T08:23:54;3.17;;;1.35;;
71600;SDS011;59446;52.192;4.628;2023-01-25T08:26:20;5.20;;;1.30;;
71600;SDS011;59446;52.192;4.628;2023-01-25T08:28:46;2.60;;;1.07;;
71600;SDS011;59446;52.192;4.628;2023-01-25T08:33:37;3.33;;;1.33;;
71600;SDS011;59446;52.192;4.628;2023-01-25T08:36:03;2.70;;;1.25;;
71600;SDS011;59446;52.192;4.628;2023-01-25T08:38:30;2.33;;;0.80;;
71600;SDS011;59446;52.192;4.628;2023-01-25T08:41:03;2.13;;;0.90;;
71600;SDS011;59446;52.192;4.628;2023-01-25T08:43:29;2.42;;;1.02;;
71600;SDS011;59446;52.192;4.628;2023-01-25T08:45:55;2.97;;;1.27;;
71600;SDS011;59446;52.192;4.628;2023-01-25T08:48:21;2.45;;;1.10;;
71600;SDS011;59446;52.192;4.628;2023-01-25T08:50:47;3.13;;;1.03;;
71600;SDS011;59446;52.192;4.628;2023-01-25T08:53:12;3.20;;;1.50;;
71600;SDS011;59446;52.192;4.628;2023-01-25T08:55:38;2.45;;;1.10;;
71600;SDS011;59446;52.192;4.628;2023-01-25T08:58:07;2.87;;;1.60;;
71600;SDS011;59446;52.192;4.628;2023-01-25T09:00:35;2.85;;;1.50;;
71600;SDS011;59446;52.192;4.628;2023-01-25T09:03:02;3.65;;;1.90;;
71600;SDS011;59446;52.192;4.628;2023-01-25T09:05:27;4.53;;;2.23;;
71600;SDS011;59446;52.192;4.628;2023-01-25T09:07:52;29.47;;;12.33;;
71600;SDS011;59446;52.192;4.628;2023-01-25T09:10:18;17.17;;;7.10;;
71600;SDS011;59446;52.192;4.628;2023-01-25T09:12:43;11.98;;;4.20;;
71600;SDS011;59446;52.192;4.628;2023-01-25T09:15:09;13.43;;;4.83;;
71600;SDS011;59446;52.192;4.628;2023-01-25T09:17:34;10.63;;;3.70;;
71600;SDS011;59446;52.192;4.628;2023-01-25T09:20:03;12.98;;;3.80;;
71600;SDS011;59446;52.192;4.628;2023-01-25T09:22:30;10.50;;;3.60;;
71600;SDS011;59446;52.192;4.628;2023-01-25T09:24:55;9.53;;;3.23;;
71600;SDS011;59446;52.192;4.628;2023-01-25T09:27:21;9.75;;;3.03;;
71600;SDS011;59446;52.192;4.628;2023-01-25T09:29:46;6.43;;;2.73;;
71600;SDS011;59446;52.192;4.628;2023-01-25T09:32:12;10.53;;;2.73;;
71600;SDS011;59446;52.192;4.628;2023-01-25T09:34:37;6.30;;;2.93;;
71600;SDS011;59446;52.192;4.628;2023-01-25T09:37:02;7.53;;;2.80;;
71600;SDS011;59446;52.192;4.628;2023-01-25T09:39:28;9.63;;;1.77;;
71600;SDS011;59446;52.192;4.628;2023-01-25T09:53:11;7.70;;;2.37;;
71600;SDS011;59446;52.192;4.628;2023-01-25T09:55:43;7.47;;;2.03;;
71600;SDS011;59446;52.192;4.628;2023-01-25T09:58:17;4.50;;;2.10;;
71600;SDS011;59446;52.192;4.628;2023-01-25T10:00:46;4.93;;;2.53;;
71600;SDS011;59446;52.192;4.628;2023-01-25T10:03:33;4.17;;;1.87;;
71600;SDS011;59446;52.192;4.628;2023-01-25T10:06:07;8.07;;;2.15;;
71600;SDS011;59446;52.192;4.628;2023-01-25T10:11:39;7.80;;;2.30;;
71600;SDS011;59446;52.192;4.628;2023-01-25T10:14:15;6.75;;;2.33;;
71600;SDS011;59446;52.192;4.628;2023-01-25T10:19:39;5.20;;;1.93;;
71600;SDS011;59446;52.192;4.628;2023-01-25T10:22:25;4.50;;;2.03;;
71600;SDS011;59446;52.192;4.628;2023-01-25T10:27:57;4.40;;;1.95;;
71600;SDS011;59446;52.192;4.628;2023-01-25T10:30:27;3.37;;;1.80;;
71600;SDS011;59446;52.192;4.628;2023-01-25T10:32:58;8.20;;;2.55;;
71600;SDS011;59446;52.192;4.628;2023-01-25T10:35:28;4.70;;;2.30;;
71600;SDS011;59446;52.192;4.628;2023-01-25T10:37:57;6.80;;;2.50;;
71600;SDS011;59446;52.192;4.628;2023-01-25T10:40:25;5.55;;;2.20;;
71600;SDS011;59446;52.192;4.628;2023-01-25T10:43:01;4.43;;;1.88;;
71600;SDS011;59446;52.192;4.628;2023-01-25T10:45:30;4.97;;;2.40;;
71600;SDS011;59446;52.192;4.628;2023-01-25T10:47:56;3.17;;;1.98;;
71600;SDS011;59446;52.192;4.628;2023-01-25T10:53:15;7.25;;;2.58;;
71600;SDS011;59446;52.192;4.628;2023-01-25T10:58:44;4.07;;;1.90;;
71600;SDS011;59446;52.192;4.628;2023-01-25T11:01:29;6.63;;;2.55;;
71600;SDS011;59446;52.192;4.628;2023-01-25T11:03:56;4.30;;;1.92;;
71600;SDS011;59446;52.192;4.628;2023-01-25T11:06:39;5.22;;;2.30;;
71600;SDS011;59446;52.192;4.628;2023-01-25T11:11:53;5.20;;;2.30;;
71600;SDS011;59446;52.192;4.628;2023-01-25T11:14:21;5.28;;;1.90;;
71600;SDS011;59446;52.192;4.628;2023-01-25T11:16:48;5.30;;;2.13;;
71600;SDS011;59446;52.192;4.628;2023-01-25T11:19:27;5.25;;;2.00;;
71600;SDS011;59446;52.192;4.628;2023-01-25T11:21:56;5.13;;;2.20;;
71600;SDS011;59446;52.192;4.628;2023-01-25T11:24:26;4.40;;;2.17;;
71600;SDS011;59446;52.192;4.628;2023-01-25T11:29:43;4.95;;;2.42;;
71600;SDS011;59446;52.192;4.628;2023-01-25T11:35:33;4.55;;;2.22;;
71600;SDS011;59446;52.192;4.628;2023-01-25T11:38:10;4.57;;;2.22;;
71600;SDS011;59446;52.192;4.628;2023-01-25T11:49:01;4.65;;;2.05;;
71600;SDS011;59446;52.192;4.628;2023-01-25T12:09:01;6.40;;;2.47;;
71600;SDS011;59446;52.192;4.628;2023-01-25T12:14:36;6.10;;;2.55;;
71600;SDS011;59446;52.192;4.628;2023-01-25T12:17:28;6.07;;;3.38;;
71600;SDS011;59446;52.192;4.628;2023-01-25T12:20:09;9.10;;;2.70;;
71600;SDS011;59446;52.192;4.628;2023-01-25T12:25:31;5.53;;;2.35;;
71600;SDS011;59446;52.192;4.628;2023-01-25T12:28:12;6.90;;;2.50;;
71600;SDS011;59446;52.192;4.628;2023-01-25T12:33:59;5.78;;;2.65;;
71600;SDS011;59446;52.192;4.628;2023-01-25T12:36:36;6.33;;;2.30;;
71600;SDS011;59446;52.192;4.628;2023-01-25T12:41:36;6.20;;;2.00;;
71600;SDS011;59446;52.192;4.628;2023-01-25T12:44:07;5.78;;;2.67;;
71600;SDS011;59446;52.192;4.628;2023-01-25T12:46:50;5.70;;;2.58;;
71600;SDS011;59446;52.192;4.628;2023-01-25T12:52:14;5.45;;;2.67;;
71600;SDS011;59446;52.192;4.628;2023-01-25T12:54:42;5.95;;;2.72;;
71600;SDS011;59446;52.192;4.628;2023-01-25T13:00:01;6.88;;;3.03;;
71600;SDS011;59446;52.192;4.628;2023-01-25T13:05:31;6.35;;;2.72;;
71600;SDS011;59446;52.192;4.628;2023-01-25T13:13:33;7.75;;;2.90;;
71600;SDS011;59446;52.192;4.628;2023-01-25T13:16:00;6.87;;;2.40;;
71600;SDS011;59446;52.192;4.628;2023-01-25T13:18:53;5.97;;;2.58;;
71600;SDS011;59446;52.192;4.628;2023-01-25T13:24:21;6.40;;;2.65;;
71600;SDS011;59446;52.192;4.628;2023-01-25T13:34:59;6.35;;;2.60;;
71600;SDS011;59446;52.192;4.628;2023-01-25T13:37:29;7.27;;;3.10;;
71600;SDS011;59446;52.192;4.628;2023-01-25T13:42:44;5.97;;;3.00;;
71600;SDS011;59446;52.192;4.628;2023-01-25T13:45:26;5.63;;;2.40;;
71600;SDS011;59446;52.192;4.628;2023-01-25T13:48:04;6.65;;;2.75;;
71600;SDS011;59446;52.192;4.628;2023-01-25T13:50:37;6.78;;;2.58;;
71600;SDS011;59446;52.192;4.628;2023-01-25T13:55:41;6.18;;;2.72;;
71600;SDS011;59446;52.192;4.628;2023-01-25T13:58:19;6.43;;;2.70;;
71600;SDS011;59446;52.192;4.628;2023-01-25T14:00:56;6.20;;;3.00;;
71600;SDS011;59446;52.192;4.628;2023-01-25T14:03:27;7.43;;;3.10;;
71600;SDS011;59446;52.192;4.628;2023-01-25T14:06:21;5.75;;;2.40;;
71600;SDS011;59446;52.192;4.628;2023-01-25T14:08:50;9.85;;;3.58;;
71600;SDS011;59446;52.192;4.628;2023-01-25T14:11:25;6.60;;;2.60;;
71600;SDS011;59446;52.192;4.628;2023-01-25T14:16:42;7.95;;;2.97;;
71600;SDS011;59446;52.192;4.628;2023-01-25T14:19:24;6.57;;;3.10;;
71600;SDS011;59446;52.192;4.628;2023-01-25T14:27:51;6.33;;;2.27;;
71600;SDS011;59446;52.192;4.628;2023-01-25T14:30:20;4.80;;;2.15;;
71600;SDS011;59446;52.192;4.628;2023-01-25T14:32:46;6.10;;;2.80;;
71600;SDS011;59446;52.192;4.628;2023-01-25T14:37:53;5.70;;;2.50;;
71600;SDS011;59446;52.192;4.628;2023-01-25T14:40:19;12.02;;;2.38;;
71600;SDS011;59446;52.192;4.628;2023-01-25T14:42:47;5.67;;;2.53;;
71600;SDS011;59446;52.192;4.628;2023-01-25T14:45:13;5.00;;;2.20;;
71600;SDS011;59446;52.192;4.628;2023-01-25T14:47:39;5.93;;;2.35;;
71600;SDS011;59446;52.192;4.628;2023-01-25T14:52:56;7.00;;;2.63;;
71600;SDS011;59446;52.192;4.628;2023-01-25T14:55:22;5.73;;;2.97;;
71600;SDS011;59446;52.192;4.628;2023-01-25T14:57:49;5.28;;;2.30;;
71600;SDS011;59446;52.192;4.628;2023-01-25T15:00:48;7.03;;;2.95;;
71600;SDS011;59446;52.192;4.628;2023-01-25T15:03:06;5.90;;;2.57;;
71600;SDS011;59446;52.192;4.628;2023-01-25T15:05:43;6.47;;;2.75;;
71600;SDS011;59446;52.192;4.628;2023-01-25T15:10:49;7.03;;;2.67;;
71600;SDS011;59446;52.192;4.628;2023-01-25T15:13:42;6.07;;;2.80;;
71600;SDS011;59446;52.192;4.628;2023-01-25T15:16:08;6.10;;;2.78;;
71600;SDS011;59446;52.192;4.628;2023-01-25T15:18:44;5.90;;;2.73;;
71600;SDS011;59446;52.192;4.628;2023-01-25T15:21:15;5.78;;;2.35;;
71600;SDS011;59446;52.192;4.628;2023-01-25T15:23:47;6.67;;;3.00;;
71600;SDS011;59446;52.192;4.628;2023-01-25T15:26:18;6.50;;;2.58;;
71600;SDS011;59446;52.192;4.628;2023-01-25T15:28:47;6.25;;;2.42;;
71600;SDS011;59446;52.192;4.628;2023-01-25T15:31:15;6.80;;;2.53;;
71600;SDS011;59446;52.192;4.628;2023-01-25T15:33:42;6.20;;;2.60;;
71600;SDS011;59446;52.192;4.628;2023-01-25T15:36:08;6.20;;;2.80;;
71600;SDS011;59446;52.192;4.628;2023-01-25T15:38:34;7.97;;;3.70;;
71600;SDS011;59446;52.192;4.628;2023-01-25T15:40:59;6.27;;;2.73;;
71600;SDS011;59446;52.192;4.628;2023-01-25T15:43:25;7.32;;;2.67;;
71600;SDS011;59446;52.192;4.628;2023-01-25T15:45:51;8.37;;;2.83;;
71600;SDS011;59446;52.192;4.628;2023-01-25T15:48:34;7.27;;;3.23;;
71600;SDS011;59446;52.192;4.628;2023-01-25T15:51:01;9.00;;;3.58;;
71600;SDS011;59446;52.192;4.628;2023-01-25T15:53:26;6.30;;;2.70;;
71600;SDS011;59446;52.192;4.628;2023-01-25T15:56:12;5.57;;;2.72;;
71600;SDS011;59446;52.192;4.628;2023-01-25T15:58:40;5.23;;;2.33;;
71600;SDS011;59446;52.192;4.628;2023-01-25T16:01:09;6.35;;;2.65;;
71600;SDS011;59446;52.192;4.628;2023-01-25T16:03:35;7.50;;;3.07;;
71600;SDS011;59446;52.192;4.628;2023-01-25T16:06:01;6.43;;;2.97;;
71600;SDS011;59446;52.192;4.628;2023-01-25T16:08:29;6.47;;;3.30;;
71600;SDS011;59446;52.192;4.628;2023-01-25T16:10:55;6.00;;;2.53;;
71600;SDS011;59446;52.192;4.628;2023-01-25T16:13:21;6.88;;;3.17;;
71600;SDS011;59446;52.192;4.628;2023-01-25T16:15:49;7.07;;;2.77;;
71600;SDS011;59446;52.192;4.628;2023-01-25T16:18:17;6.75;;;2.80;;
71600;SDS011;59446;52.192;4.628;2023-01-25T16:20:42;7.18;;;2.95;;
71600;SDS011;59446;52.192;4.628;2023-01-25T16:23:11;7.30;;;2.93;;
71600;SDS011;59446;52.192;4.628;2023-01-25T16:25:38;7.35;;;3.13;;
71600;SDS011;59446;52.192;4.628;2023-01-25T16:28:04;7.27;;;2.60;;
71600;SDS011;59446;52.192;4.628;2023-01-25T16:30:30;7.80;;;2.80;;
71600;SDS011;59446;52.192;4.628;2023-01-25T16:32:58;7.00;;;2.65;;
71600;SDS011;59446;52.192;4.628;2023-01-25T16:35:33;7.80;;;3.22;;
71600;SDS011;59446;52.192;4.628;2023-01-25T16:37:58;6.77;;;2.90;;
71600;SDS011;59446;52.192;4.628;2023-01-25T16:40:27;6.33;;;2.50;;
71600;SDS011;59446;52.192;4.628;2023-01-25T16:42:56;7.72;;;3.20;;
71600;SDS011;59446;52.192;4.628;2023-01-25T16:45:21;7.33;;;4.37;;
71600;SDS011;59446;52.192;4.628;2023-01-25T16:47:50;7.90;;;3.55;;
71600;SDS011;59446;52.192;4.628;2023-01-25T16:50:17;6.97;;;2.60;;
71600;SDS011;59446;52.192;4.628;2023-01-25T16:52:44;8.07;;;3.33;;
71600;SDS011;59446;52.192;4.628;2023-01-25T16:55:13;6.45;;;2.55;;
71600;SDS011;59446;52.192;4.628;2023-01-25T16:57:39;6.05;;;2.70;;
71600;SDS011;59446;52.192;4.628;2023-01-25T17:00:07;6.40;;;2.87;;
71600;SDS011;59446;52.192;4.628;2023-01-25T17:02:40;6.60;;;2.75;;
71600;SDS011;59446;52.192;4.628;2023-01-25T17:05:07;8.20;;;2.90;;
71600;SDS011;59446;52.192;4.628;2023-01-25T17:07:34;5.40;;;1.93;;
71600;SDS011;59446;52.192;4.628;2023-01-25T17:09:59;6.55;;;2.47;;
71600;SDS011;59446;52.192;4.628;2023-01-25T17:12:25;7.22;;;2.75;;
71600;SDS011;59446;52.192;4.628;2023-01-25T17:14:51;7.50;;;2.77;;